Time;durP1;ratioP1;P1;durP2;ratioP2;P2;SDS_P1;SDS_P2;PMS_P1;PMS_P2;Temp;Humidity;BMP_temperature;BMP_pressure;BME280_temperature;BME280_humidity;BME280_pressure;Samples;Min_cycle;Max_cycle;Signal;HPM_P1;HPM_P2
2022/05/07 00:00:08;;;;;;;18.52;10.90;;;11.70;99.90;;;;;;10487008;28;20037;-84
2022/05/07 00:05:09;;;;;;;16.40;10.90;;;11.80;99.90;;;;;;10446363;28;20548;-84
2022/05/07 00:10:10;;;;;;;17.95;12.38;;;11.90;99.90;;;;;;10466787;28;20131;-84
2022/05/07 00:15:10;;;;;;;18.10;11.45;;;11.90;99.90;;;;;;10486426;28;20029;-85
2022/05/07 00:20:11;;;;;;;16.52;10.32;;;11.90;99.90;;;;;;10496088;28;20040;-84
2022/05/07 00:25:12;;;;;;;17.73;10.73;;;12.00;99.90;;;;;;10494756;28;20057;-84
2022/05/07 00:30:12;;;;;;;19.92;11.10;;;12.00;99.90;;;;;;10495011;28;20032;-83
2022/05/07 00:35:13;;;;;;;17.40;11.77;;;12.00;99.90;;;;;;10494164;28;20059;-84
2022/05/07 00:40:14;;;;;;;16.70;11.18;;;12.00;99.90;;;;;;10491423;28;20064;-84
2022/05/07 00:45:14;;;;;;;19.45;12.95;;;11.90;99.90;;;;;;10493417;28;20028;-84
2022/05/07 00:55:35;;;;;;;21.67;12.60;;;11.90;99.90;;;;;;10466026;28;20033;-84
2022/05/07 01:00:36;;;;;;;21.08;11.88;;;11.90;99.90;;;;;;10462536;28;20043;-84
2022/05/07 01:05:36;;;;;;;20.48;13.95;;;11.90;99.90;;;;;;10492721;28;20039;-84
2022/05/07 01:10:38;;;;;;;21.20;13.55;;;11.90;99.90;;;;;;10493995;28;20031;-83
2022/05/07 01:15:46;;;;;;;23.55;15.02;;;11.90;99.90;;;;;;10492623;28;20033;-83
2022/05/07 01:20:47;;;;;;;21.00;12.85;;;11.90;99.90;;;;;;10489907;28;20391;-84
2022/05/07 01:25:47;;;;;;;23.00;13.77;;;11.90;99.90;;;;;;10493281;28;20052;-84
2022/05/07 01:30:48;;;;;;;23.85;15.13;;;11.80;99.90;;;;;;10491584;28;20036;-84
2022/05/07 01:35:49;;;;;;;21.73;13.55;;;11.90;99.90;;;;;;10492106;28;20040;-85
2022/05/07 01:40:49;;;;;;;23.65;13.10;;;11.80;99.90;;;;;;10491847;28;20373;-85
2022/05/07 01:45:50;;;;;;;21.35;13.15;;;11.80;99.90;;;;;;10492194;28;20125;-84
2022/05/07 01:50:51;;;;;;;22.83;13.25;;;11.80;99.90;;;;;;10491110;28;20070;-83
2022/05/07 01:55:51;;;;;;;24.42;13.10;;;11.80;99.90;;;;;;10491518;28;20078;-83
2022/05/07 02:00:52;;;;;;;20.77;11.32;;;11.70;99.90;;;;;;10470115;28;20408;-85
2022/05/07 02:05:53;;;;;;;18.05;10.77;;;11.70;99.90;;;;;;10490666;28;20032;-84
2022/05/07 02:10:54;;;;;;;19.83;11.52;;;11.70;99.90;;;;;;10473506;28;20047;-84
2022/05/07 02:15:54;;;;;;;18.85;10.77;;;11.60;99.90;;;;;;10489291;28;20026;-84
2022/05/07 02:20:56;;;;;;;18.40;9.93;;;11.50;99.90;;;;;;10472004;28;20035;-85
2022/05/07 02:25:57;;;;;;;19.38;10.38;;;11.40;99.90;;;;;;10490730;28;20052;-86
2022/05/07 02:30:57;;;;;;;21.48;12.25;;;11.30;99.90;;;;;;10489276;28;20041;-86
2022/05/07 02:35:58;;;;;;;22.02;14.13;;;11.20;99.90;;;;;;10489336;28;20655;-87
2022/05/07 02:46:17;;;;;;;22.98;13.15;;;11.10;99.90;;;;;;10487979;28;20554;-87
2022/05/07 02:51:18;;;;;;;20.75;13.65;;;11.10;99.90;;;;;;10489212;28;20050;-85
2022/05/07 02:56:19;;;;;;;25.30;13.85;;;11.10;99.90;;;;;;10489153;28;20033;-86
2022/05/07 03:01:19;;;;;;;25.45;13.60;;;11.10;99.90;;;;;;10489213;28;20486;-86
2022/05/07 03:06:20;;;;;;;26.85;14.60;;;11.10;99.90;;;;;;10468538;28;20094;-86
2022/05/07 03:11:20;;;;;;;24.08;15.20;;;11.10;99.90;;;;;;10488352;28;20079;-87
2022/05/07 03:16:21;;;;;;;27.50;15.52;;;11.20;99.90;;;;;;10486767;28;20037;-86
2022/05/07 03:21:22;;;;;;;24.73;13.77;;;11.20;99.90;;;;;;10487862;28;20487;-86
2022/05/07 03:26:22;;;;;;;25.90;12.93;;;11.20;99.90;;;;;;10487479;28;20680;-86
2022/05/07 03:31:23;;;;;;;21.25;12.27;;;11.20;99.90;;;;;;10488003;28;20028;-86
2022/05/07 03:36:23;;;;;;;23.17;14.25;;;11.20;99.90;;;;;;10488179;28;20031;-87
2022/05/07 03:41:24;;;;;;;24.85;15.23;;;11.30;99.90;;;;;;10488795;28;20051;-86
2022/05/07 03:46:25;;;;;;;22.95;14.82;;;11.30;99.90;;;;;;10487101;28;20035;-87
2022/05/07 03:51:26;;;;;;;25.90;15.73;;;11.40;99.90;;;;;;10473395;28;20147;-85
2022/05/07 03:56:27;;;;;;;25.65;14.02;;;11.30;99.90;;;;;;10500400;28;20034;-85
2022/05/07 04:01:27;;;;;;;24.92;15.45;;;11.40;99.90;;;;;;10501688;28;20024;-86
2022/05/07 04:06:28;;;;;;;28.23;13.98;;;11.40;99.90;;;;;;10500503;28;20036;-87
2022/05/07 04:11:29;;;;;;;26.65;14.18;;;11.50;99.90;;;;;;10486492;28;20094;-88
2022/05/07 04:16:29;;;;;;;24.00;14.07;;;11.50;99.90;;;;;;10499956;28;20029;-86
2022/05/07 04:21:32;;;;;;;26.42;15.27;;;11.60;99.90;;;;;;10482121;28;20041;-87
2022/05/07 04:26:33;;;;;;;28.17;16.95;;;11.60;99.90;;;;;;10482018;28;20098;-85
2022/05/07 04:31:34;;;;;;;31.55;16.13;;;11.60;99.90;;;;;;10499937;28;20533;-86
2022/05/07 04:36:34;;;;;;;24.08;14.77;;;11.70;99.90;;;;;;10493923;28;20024;-87
2022/05/07 04:41:35;;;;;;;27.65;16.67;;;11.80;99.90;;;;;;10499793;28;20025;-86
2022/05/07 04:46:35;;;;;;;28.63;16.55;;;11.80;99.90;;;;;;10498108;28;20075;-87
2022/05/07 04:51:36;;;;;;;30.30;16.35;;;11.80;99.90;;;;;;10480551;28;20476;-86
2022/05/07 04:56:36;;;;;;;28.73;16.85;;;11.80;99.90;;;;;;10499654;28;20039;-87
2022/05/07 05:01:37;;;;;;;28.52;16.77;;;11.80;99.90;;;;;;10499693;28;20161;-86
2022/05/07 05:06:39;;;;;;;33.35;17.27;;;11.70;99.90;;;;;;10492754;28;20358;-85
2022/05/07 05:11:39;;;;;;;29.67;17.45;;;11.70;99.90;;;;;;10493996;28;20024;-85
2022/05/07 05:16:40;;;;;;;32.80;19.08;;;11.80;99.90;;;;;;10493073;28;20129;-87
2022/05/07 05:21:41;;;;;;;30.17;17.08;;;11.80;99.90;;;;;;10493758;28;20039;-88
2022/05/07 05:26:42;;;;;;;27.20;16.55;;;11.80;99.90;;;;;;10491793;28;20052;-90
2022/05/07 05:31:42;;;;;;;25.52;16.05;;;11.80;99.90;;;;;;10471138;28;20491;-88
2022/05/07 05:36:43;;;;;;;28.25;17.00;;;11.90;99.90;;;;;;10492111;28;20471;-87
2022/05/07 05:41:44;;;;;;;28.63;16.38;;;11.90;99.90;;;;;;10492317;28;20060;-88
2022/05/07 05:46:44;;;;;;;28.55;17.30;;;11.90;99.90;;;;;;10492136;28;20145;-88
2022/05/07 05:51:45;;;;;;;26.90;15.32;;;12.00;99.90;;;;;;10491578;28;20028;-88
2022/05/07 05:56:46;;;;;;;22.98;14.23;;;12.10;99.90;;;;;;10491510;28;20904;-89
2022/05/07 06:01:47;;;;;;;24.85;13.95;;;12.20;99.90;;;;;;10492090;28;20032;-89
2022/05/07 06:06:48;;;;;;;27.40;14.57;;;12.30;99.90;;;;;;10472949;28;20033;-87
2022/05/07 06:11:49;;;;;;;27.13;13.13;;;12.40;99.90;;;;;;10491298;28;20055;-88
2022/05/07 06:16:49;;;;;;;24.88;13.85;;;12.60;99.90;;;;;;10490551;28;20043;-88
2022/05/07 06:21:50;;;;;;;21.25;13.15;;;12.80;99.90;;;;;;10490075;28;20489;-89
2022/05/07 06:32:10;;;;;;;23.88;12.75;;;13.00;99.90;;;;;;10477586;28;20038;-88
2022/05/07 06:37:11;;;;;;;25.85;13.70;;;13.00;99.90;;;;;;10471908;28;20029;-91
2022/05/07 06:42:12;;;;;;;22.45;13.65;;;13.00;99.90;;;;;;10467282;28;20075;-91
2022/05/07 06:47:12;;;;;;;24.08;14.32;;;13.10;99.90;;;;;;10443275;28;20132;-87
2022/05/07 06:52:14;;;;;;;25.67;14.45;;;13.10;99.90;;;;;;10476811;28;20028;-88
2022/05/07 06:57:15;;;;;;;25.10;15.80;;;13.10;99.90;;;;;;10470935;28;20033;-87
2022/05/07 07:02:16;;;;;;;25.40;13.88;;;13.20;99.90;;;;;;10467035;28;20032;-88
2022/05/07 07:07:24;;;;;;;21.38;14.18;;;13.20;99.90;;;;;;10469513;28;20093;-88
2022/05/07 07:12:25;;;;;;;24.33;14.55;;;13.30;99.90;;;;;;10483496;28;20017;-87
2022/05/07 07:17:28;;;;;;;25.13;15.05;;;13.30;99.90;;;;;;10461499;28;20024;-90
2022/05/07 07:22:31;;;;;;;24.85;14.73;;;13.50;99.90;;;;;;10466657;28;20044;-91
2022/05/07 07:27:34;;;;;;;24.95;13.35;;;13.50;99.90;;;;;;10465751;28;20410;-87
2022/05/07 07:32:34;;;;;;;22.75;13.45;;;13.70;99.90;;;;;;10473922;28;20035;-89
2022/05/07 07:37:35;;;;;;;23.67;12.98;;;13.80;99.90;;;;;;10486581;28;20028;-89
2022/05/07 07:42:36;;;;;;;18.27;11.80;;;14.00;99.90;;;;;;10486223;28;20700;-87
2022/05/07 07:52:58;;;;;;;20.38;11.25;;;14.40;99.40;;;;;;10479123;28;20564;-87
2022/05/07 07:58:00;;;;;;;19.95;11.45;;;14.70;96.80;;;;;;10477850;28;20043;-90
2022/05/07 08:03:03;;;;;;;20.38;11.65;;;15.00;94.30;;;;;;10468501;28;20089;-89
2022/05/07 08:13:26;;;;;;;11.63;8.20;;;15.50;97.80;;;;;;10476859;28;20044;-86
2022/05/07 08:18:27;;;;;;;15.70;9.18;;;15.90;91.10;;;;;;10466594;28;20035;-87
2022/05/07 08:23:27;;;;;;;13.95;8.48;;;16.20;89.20;;;;;;10468564;28;20668;-88
2022/05/07 08:28:29;;;;;;;16.50;8.85;;;16.40;91.30;;;;;;10468757;28;20059;-89
2022/05/07 08:33:33;;;;;;;14.10;8.75;;;16.70;90.10;;;;;;10485908;28;20029;-91
2022/05/07 08:38:34;;;;;;;15.20;7.35;;;16.90;89.70;;;;;;10482214;28;20033;-88
2022/05/07 08:43:36;;;;;;;14.70;7.03;;;17.00;90.00;;;;;;10488525;28;20052;-90
2022/05/07 08:48:41;;;;;;;24.45;13.40;;;17.10;83.90;;;;;;10478656;28;20448;-90
2022/05/07 08:53:43;;;;;;;38.00;22.15;;;17.00;78.00;;;;;;10476379;28;20034;-88
2022/05/07 08:58:51;;;;;;;19.80;11.80;;;17.00;80.60;;;;;;10484091;28;20381;-88
2022/05/07 09:03:52;;;;;;;15.18;8.80;;;17.00;82.20;;;;;;10485735;28;20375;-86
2022/05/07 09:08:56;;;;;;;11.95;8.40;;;17.00;85.80;;;;;;10492398;28;20031;-87
2022/05/07 09:14:05;;;;;;;9.48;5.60;;;17.00;84.60;;;;;;10489972;28;20075;-87
2022/05/07 09:19:05;;;;;;;9.35;5.28;;;16.90;85.60;;;;;;10467545;28;20082;-87
2022/05/07 09:24:06;;;;;;;10.38;5.40;;;16.90;83.80;;;;;;10491911;28;20044;-89
2022/05/07 09:29:10;;;;;;;7.88;4.85;;;16.90;86.20;;;;;;10472836;28;20040;-90
2022/05/07 09:39:36;;;;;;;9.07;5.20;;;17.20;84.30;;;;;;10477356;28;20052;-90
2022/05/07 09:44:37;;;;;;;8.63;4.75;;;17.40;83.60;;;;;;10446871;28;20476;-90
2022/05/07 09:50:19;;;;;;;10.95;5.85;;;17.50;82.50;;;;;;10459928;28;20439;-89
2022/05/07 10:00:23;;;;;;;9.55;5.40;;;17.40;81.70;;;;;;10477263;28;20033;-88
2022/05/07 10:06:14;;;;;;;11.30;5.80;;;17.40;81.40;;;;;;10462320;28;20083;-89
2022/05/07 10:11:16;;;;;;;11.32;5.90;;;17.30;80.10;;;;;;10389659;28;20684;-89
2022/05/07 10:16:21;;;;;;;9.00;5.28;;;17.20;77.80;;;;;;10468843;28;20028;-89
2022/05/07 10:21:22;;;;;;;9.57;5.13;;;17.30;79.00;;;;;;10462621;28;20052;-89
2022/05/07 10:26:35;;;;;;;10.02;5.03;;;17.50;78.60;;;;;;10457924;28;20128;-88
2022/05/07 10:31:44;;;;;;;13.82;6.35;;;17.70;78.10;;;;;;10479757;28;20035;-90
2022/05/07 10:36:45;;;;;;;13.02;7.68;;;18.00;77.60;;;;;;10464879;28;20025;-88
2022/05/07 10:41:47;;;;;;;13.30;7.68;;;18.00;77.00;;;;;;10455356;28;20021;-89
2022/05/07 10:46:48;;;;;;;16.20;8.27;;;18.00;77.00;;;;;;10456435;28;20064;-89
2022/05/07 10:51:51;;;;;;;15.95;8.10;;;18.20;77.60;;;;;;10479401;28;20111;-89
2022/05/07 10:56:56;;;;;;;17.23;9.23;;;18.20;77.70;;;;;;10453968;28;20028;-88
2022/05/07 11:02:10;;;;;;;14.60;9.43;;;18.20;77.70;;;;;;10443378;28;20044;-89
2022/05/07 11:07:18;;;;;;;15.85;9.07;;;18.30;78.90;;;;;;10465170;28;20460;-88
2022/05/07 11:12:22;;;;;;;19.27;9.88;;;18.30;77.80;;;;;;10476763;28;20082;-89
2022/05/07 11:17:40;;;;;;;19.67;10.07;;;18.30;74.90;;;;;;10468362;28;20040;-89
2022/05/07 11:22:41;;;;;;;19.02;10.98;;;18.30;77.70;;;;;;10451122;28;20458;-90
2022/05/07 11:28:05;;;;;;;28.00;15.77;;;18.40;77.80;;;;;;10475253;28;20044;-93
2022/05/07 11:33:07;;;;;;;15.88;9.02;;;18.70;72.10;;;;;;10467853;28;20025;-88
2022/05/07 11:38:12;;;;;;;16.92;9.00;;;19.00;75.40;;;;;;10476986;28;20044;-88
2022/05/07 11:48:39;;;;;;;19.58;12.48;;;19.10;73.00;;;;;;10468543;28;20479;-90
2022/05/07 11:53:39;;;;;;;15.50;8.32;;;19.10;73.40;;;;;;10469682;28;20025;-90
2022/05/07 11:58:41;;;;;;;17.35;9.02;;;19.10;72.20;;;;;;10464163;28;20832;-89
2022/05/07 12:03:42;;;;;;;17.73;7.90;;;19.00;71.80;;;;;;10471239;28;20028;-89
2022/05/07 12:08:43;;;;;;;15.70;8.25;;;19.00;71.80;;;;;;10465812;28;20596;-92
2022/05/07 12:13:45;;;;;;;23.73;13.95;;;18.90;70.80;;;;;;10457124;28;20032;-89
2022/05/07 12:18:48;;;;;;;11.68;7.03;;;18.90;71.70;;;;;;10463604;28;20029;-88
2022/05/07 12:34:27;;;;;;;8.75;5.20;;;19.20;68.50;;;;;;10482037;28;20041;-85
2022/05/07 12:39:28;;;;;;;10.82;5.63;;;19.40;68.60;;;;;;10471466;28;20025;-88
2022/05/07 12:44:31;;;;;;;10.82;6.18;;;19.60;68.10;;;;;;10480460;28;20073;-88
2022/05/07 12:49:32;;;;;;;15.05;6.25;;;19.80;65.00;;;;;;10469077;28;20068;-88
2022/05/07 12:54:34;;;;;;;9.13;5.78;;;20.40;66.10;;;;;;10467089;28;20096;-88
2022/05/07 12:59:38;;;;;;;12.00;5.88;;;20.80;67.20;;;;;;10450805;28;20360;-89
2022/05/07 13:04:42;;;;;;;9.68;4.68;;;20.70;64.70;;;;;;10486713;28;20032;-89
2022/05/07 13:09:42;;;;;;;13.10;5.60;;;20.50;65.40;;;;;;10472600;28;20064;-86
2022/05/07 13:14:43;;;;;;;8.77;5.00;;;20.70;66.10;;;;;;10490438;28;20112;-89
2022/05/07 13:20:00;;;;;;;12.35;5.57;;;20.80;63.60;;;;;;10474029;28;20024;-88
2022/05/07 13:25:01;;;;;;;14.70;5.43;;;20.60;64.40;;;;;;10462678;28;20194;-88
2022/05/07 13:30:02;;;;;;;7.30;4.53;;;20.40;65.70;;;;;;10465456;28;20041;-88
2022/05/07 13:35:04;;;;;;;9.40;5.00;;;20.20;65.30;;;;;;10460479;28;20027;-90
2022/05/07 13:40:06;;;;;;;12.63;5.60;;;20.00;65.40;;;;;;10490462;28;20063;-88
2022/05/07 13:45:09;;;;;;;10.05;4.97;;;20.00;65.90;;;;;;10487282;28;20158;-86
2022/05/07 13:50:12;;;;;;;11.38;5.47;;;20.20;62.70;;;;;;10489934;28;20036;-88
2022/05/07 13:55:15;;;;;;;10.23;6.63;;;20.40;62.90;;;;;;10475626;28;20089;-90
2022/05/07 14:00:17;;;;;;;13.27;5.80;;;20.40;61.70;;;;;;10469270;28;20013;-88
2022/05/07 14:05:17;;;;;;;7.78;5.03;;;20.50;64.40;;;;;;10489577;28;20032;-88
2022/05/07 14:10:18;;;;;;;11.10;6.05;;;20.60;63.40;;;;;;10470684;28;20035;-86
2022/05/07 14:15:18;;;;;;;11.55;6.47;;;20.50;64.10;;;;;;10468600;28;20063;-86
2022/05/07 14:20:19;;;;;;;9.30;5.10;;;20.50;60.80;;;;;;10489009;28;20033;-86
2022/05/07 14:25:20;;;;;;;10.73;5.40;;;20.30;62.70;;;;;;10465143;28;20052;-88
2022/05/07 14:30:21;;;;;;;13.63;6.38;;;20.10;64.20;;;;;;10457867;28;20037;-89
2022/05/07 14:35:22;;;;;;;8.30;5.00;;;20.00;65.90;;;;;;10481849;28;20074;-86
2022/05/07 14:40:28;;;;;;;11.23;5.05;;;19.80;65.50;;;;;;10482450;28;20025;-86
2022/05/07 14:45:30;;;;;;;10.50;5.53;;;19.60;68.00;;;;;;10488456;28;20029;-87
2022/05/07 14:50:30;;;;;;;9.48;5.63;;;19.50;66.60;;;;;;10475942;28;20119;-87
2022/05/07 14:55:31;;;;;;;8.80;5.55;;;19.40;63.40;;;;;;10465346;28;20031;-87
2022/05/07 15:00:33;;;;;;;9.95;5.70;;;19.30;63.50;;;;;;10488101;28;20475;-87
2022/05/07 15:05:34;;;;;;;49.92;29.92;;;19.40;68.10;;;;;;10489464;28;20028;-86
2022/05/07 15:10:37;;;;;;;19.52;13.02;;;19.40;67.70;;;;;;10488196;28;20066;-87
2022/05/07 15:15:38;;;;;;;14.40;6.82;;;19.50;66.90;;;;;;10476014;28;20028;-88
2022/05/07 15:20:41;;;;;;;8.88;5.55;;;19.40;64.00;;;;;;10463620;28;20443;-88
2022/05/07 15:25:42;;;;;;;9.45;5.50;;;19.40;66.90;;;;;;10441561;28;20577;-88
2022/05/07 15:30:44;;;;;;;10.48;5.60;;;19.30;71.10;;;;;;10474862;28;20384;-87
2022/05/07 15:41:04;;;;;;;9.45;6.72;;;19.30;68.50;;;;;;10446365;28;20029;-88
2022/05/07 15:46:05;;;;;;;13.05;7.30;;;19.20;70.20;;;;;;10454960;28;20547;-87
2022/05/07 15:51:05;;;;;;;10.30;6.32;;;19.00;71.80;;;;;;10469623;28;20029;-87
2022/05/07 15:56:06;;;;;;;13.02;7.70;;;18.90;68.30;;;;;;10486807;28;20115;-87
2022/05/07 16:01:08;;;;;;;11.98;6.03;;;18.90;70.40;;;;;;10485765;28;20103;-87
2022/05/07 16:06:09;;;;;;;10.70;5.90;;;18.80;72.30;;;;;;10487154;28;20059;-87
2022/05/07 16:11:09;;;;;;;12.95;6.75;;;18.80;75.20;;;;;;10487935;28;20124;-87
2022/05/07 16:16:10;;;;;;;15.68;7.97;;;18.80;76.20;;;;;;10487764;28;20037;-87
2022/05/07 16:21:10;;;;;;;13.70;7.93;;;18.80;73.50;;;;;;10484498;28;20108;-88
2022/05/07 16:26:11;;;;;;;9.57;6.15;;;18.70;73.40;;;;;;10487176;28;20056;-88
2022/05/07 16:31:20;;;;;;;12.73;6.82;;;18.60;72.80;;;;;;10487024;28;20036;-88
2022/05/07 16:36:21;;;;;;;10.95;6.38;;;18.50;72.80;;;;;;10485454;28;20418;-88
2022/05/07 16:41:22;;;;;;;9.90;6.00;;;18.40;70.70;;;;;;10486613;28;20036;-87
2022/05/07 16:46:22;;;;;;;7.90;5.57;;;18.40;76.10;;;;;;10485881;28;20111;-88
2022/05/07 16:51:23;;;;;;;11.73;5.68;;;18.30;78.70;;;;;;10466053;28;20028;-89
2022/05/07 16:56:23;;;;;;;10.60;6.07;;;18.20;79.90;;;;;;10477138;28;20391;-87
2022/05/07 17:01:24;;;;;;;17.48;9.77;;;18.10;80.30;;;;;;10490180;28;20507;-86
2022/05/07 17:06:28;;;;;;;24.27;12.93;;;17.80;79.80;;;;;;10495629;28;20032;-86
2022/05/07 17:11:28;;;;;;;26.73;13.13;;;17.60;80.30;;;;;;10494236;28;20041;-86
2022/05/07 17:16:29;;;;;;;22.80;13.05;;;17.50;82.20;;;;;;10475270;28;20036;-87
2022/05/07 17:21:30;;;;;;;20.40;14.70;;;17.40;79.90;;;;;;10472152;28;20396;-86
2022/05/07 17:26:30;;;;;;;21.80;15.30;;;17.20;80.10;;;;;;10482617;28;20136;-86
2022/05/07 17:31:31;;;;;;;22.42;16.40;;;17.10;79.80;;;;;;10492724;28;20045;-88
2022/05/07 17:36:32;;;;;;;18.40;12.65;;;16.90;82.00;;;;;;10487652;28;20487;-87
2022/05/07 17:41:33;;;;;;;16.83;11.30;;;16.70;84.40;;;;;;10487534;28;20025;-87
2022/05/07 17:46:33;;;;;;;17.10;11.63;;;16.50;84.20;;;;;;10481614;28;20438;-86
2022/05/07 17:51:34;;;;;;;17.98;11.85;;;16.30;86.40;;;;;;10457073;28;20036;-86
2022/05/07 17:56:36;;;;;;;23.50;14.80;;;15.90;86.40;;;;;;10462734;28;20044;-87
2022/05/07 18:01:38;;;;;;;29.50;19.20;;;15.60;89.00;;;;;;10460768;28;20565;-86
2022/05/07 18:06:39;;;;;;;22.85;16.60;;;15.20;90.30;;;;;;10488428;28;20075;-86
2022/05/07 18:11:40;;;;;;;26.25;17.90;;;15.00;90.80;;;;;;10489875;28;20116;-87
2022/05/07 18:16:40;;;;;;;21.23;15.00;;;14.80;91.30;;;;;;10489897;28;20028;-86
2022/05/07 18:21:42;;;;;;;24.48;16.23;;;14.60;92.80;;;;;;10478583;28;20051;-86
2022/05/07 18:26:43;;;;;;;29.13;19.83;;;14.40;94.50;;;;;;10484031;28;20059;-86
2022/05/07 18:31:44;;;;;;;32.10;16.88;;;14.20;95.70;;;;;;10489409;28;20024;-86
2022/05/07 18:47:29;;;;;;;53.22;32.08;;;13.60;99.90;;;;;;10488735;28;20123;-87
2022/05/07 18:52:32;;;;;;;51.63;29.52;;;13.40;99.90;;;;;;10485443;28;20025;-89
2022/05/07 19:02:52;;;;;;;41.42;25.30;;;13.20;99.90;;;;;;10487222;28;20361;-87
2022/05/07 19:07:53;;;;;;;42.70;25.98;;;13.10;99.90;;;;;;10487011;28;20028;-87
2022/05/07 19:12:54;;;;;;;41.95;25.70;;;13.00;99.90;;;;;;10487595;28;20383;-87
2022/05/07 19:17:57;;;;;;;38.45;23.55;;;12.90;99.90;;;;;;10487907;28;20017;-86
2022/05/07 19:22:58;;;;;;;35.65;22.58;;;12.80;99.90;;;;;;10464957;28;20040;-87
2022/05/07 19:27:59;;;;;;;31.88;21.52;;;12.80;99.90;;;;;;10488840;28;20121;-87
2022/05/07 19:32:59;;;;;;;31.27;19.70;;;12.70;99.90;;;;;;10484058;28;20033;-87
2022/05/07 19:38:01;;;;;;;32.70;21.15;;;12.70;99.90;;;;;;10486082;28;20081;-88
2022/05/07 19:43:02;;;;;;;35.80;23.23;;;12.60;99.90;;;;;;10484086;28;20039;-88
2022/05/07 19:48:04;;;;;;;34.85;22.67;;;12.60;99.90;;;;;;10471831;28;20039;-85
2022/05/07 19:53:06;;;;;;;39.25;23.60;;;12.60;99.90;;;;;;10484341;28;20033;-86
2022/05/07 19:58:07;;;;;;;40.72;24.92;;;12.60;99.90;;;;;;10471468;28;20129;-86
2022/05/07 20:03:08;;;;;;;39.42;24.77;;;12.50;99.90;;;;;;10456410;28;20038;-84
2022/05/07 20:08:11;;;;;;;42.83;26.00;;;12.50;99.90;;;;;;10478379;28;20024;-83
2022/05/07 20:13:14;;;;;;;39.10;25.42;;;12.50;99.90;;;;;;10475231;28;20699;-84
2022/05/07 20:18:15;;;;;;;38.55;25.90;;;12.40;99.90;;;;;;10477800;28;20021;-84
2022/05/07 20:23:16;;;;;;;39.00;25.48;;;12.30;99.90;;;;;;10464644;28;20468;-86
2022/05/07 20:28:17;;;;;;;42.88;26.35;;;12.30;99.90;;;;;;10452633;28;20032;-88
2022/05/07 20:33:19;;;;;;;35.45;23.65;;;12.40;99.90;;;;;;10461350;28;20181;-86
2022/05/07 20:38:20;;;;;;;36.15;23.98;;;12.30;99.90;;;;;;10474623;28;20472;-86
2022/05/07 20:48:40;;;;;;;38.72;24.95;;;12.20;99.90;;;;;;10461267;28;20128;-85
2022/05/07 20:53:41;;;;;;;39.50;25.95;;;12.10;99.90;;;;;;10457444;28;20033;-87
2022/05/07 20:58:42;;;;;;;42.58;25.17;;;12.10;99.90;;;;;;10454250;28;20029;-86
2022/05/07 21:03:43;;;;;;;40.10;25.80;;;12.10;99.90;;;;;;10442592;28;20137;-87
2022/05/07 21:08:44;;;;;;;45.53;27.48;;;12.20;99.90;;;;;;10459621;28;20040;-86
2022/05/07 21:13:45;;;;;;;48.13;28.65;;;12.10;99.90;;;;;;10454221;28;20032;-87
2022/05/07 21:18:46;;;;;;;48.13;28.58;;;12.10;99.90;;;;;;10454163;28;20388;-88
2022/05/07 21:23:47;;;;;;;45.13;30.13;;;12.10;99.90;;;;;;10452399;28;20052;-86
2022/05/07 21:28:47;;;;;;;46.45;30.42;;;12.20;99.90;;;;;;10455482;28;20040;-86
2022/05/07 21:33:48;;;;;;;50.78;30.30;;;12.30;99.90;;;;;;10457161;28;20074;-86
2022/05/07 21:38:50;;;;;;;55.45;34.72;;;12.30;99.90;;;;;;10437526;28;20040;-86
2022/05/07 21:43:53;;;;;;;50.13;33.72;;;12.30;99.90;;;;;;10452277;28;20484;-85
2022/05/07 21:48:55;;;;;;;50.13;32.45;;;12.20;99.90;;;;;;10452760;28;20059;-86
2022/05/07 21:53:57;;;;;;;53.03;33.08;;;12.10;99.90;;;;;;10458490;28;20039;-86
2022/05/07 21:58:58;;;;;;;47.30;31.50;;;12.00;99.90;;;;;;10451531;28;20120;-87
2022/05/07 22:03:59;;;;;;;56.60;35.90;;;11.90;99.90;;;;;;10463969;28;20043;-87
2022/05/07 22:09:00;;;;;;;56.70;35.47;;;11.80;99.90;;;;;;10492313;28;20572;-87
2022/05/07 22:14:00;;;;;;;58.72;37.63;;;11.70;99.90;;;;;;10491475;28;20048;-87
2022/05/07 22:19:01;;;;;;;57.58;35.42;;;11.60;99.90;;;;;;10491802;28;20040;-87
2022/05/07 22:24:02;;;;;;;58.10;35.00;;;11.60;99.90;;;;;;10491378;28;20430;-86
2022/05/07 22:29:02;;;;;;;65.35;39.88;;;11.50;99.90;;;;;;10490751;28;20048;-86
2022/05/07 22:34:03;;;;;;;53.60;34.90;;;11.40;99.90;;;;;;10478644;28;20053;-87
2022/05/07 22:39:04;;;;;;;60.35;39.75;;;11.30;99.90;;;;;;10490366;28;20066;-87
2022/05/07 22:44:04;;;;;;;67.32;43.17;;;11.30;99.90;;;;;;10490303;28;20024;-86
2022/05/07 22:49:05;;;;;;;64.78;40.38;;;11.20;99.90;;;;;;10489769;28;20075;-87
2022/05/07 22:54:06;;;;;;;78.13;47.83;;;11.20;99.90;;;;;;10489554;28;20055;-87
2022/05/07 22:59:06;;;;;;;71.72;43.30;;;11.10;99.90;;;;;;10488210;28;20043;-87
2022/05/07 23:04:07;;;;;;;66.53;43.20;;;11.20;99.90;;;;;;10488134;28;20107;-87
2022/05/07 23:09:08;;;;;;;64.57;42.00;;;11.40;99.90;;;;;;10489769;28;20142;-87
2022/05/07 23:14:08;;;;;;;55.97;36.92;;;11.50;99.90;;;;;;10489047;28;20059;-87
2022/05/07 23:19:09;;;;;;;61.70;37.00;;;11.70;99.90;;;;;;10479314;28;20028;-86
2022/05/07 23:24:09;;;;;;;63.33;40.55;;;11.80;99.90;;;;;;10471672;28;20056;-87
2022/05/07 23:29:10;;;;;;;68.70;42.88;;;11.80;99.90;;;;;;10488443;28;20032;-87
2022/05/07 23:34:11;;;;;;;56.85;37.83;;;11.90;99.90;;;;;;10471593;28;20028;-87
2022/05/07 23:39:12;;;;;;;53.70;35.47;;;11.80;99.90;;;;;;10470854;28;20131;-86
2022/05/07 23:44:13;;;;;;;54.28;35.15;;;11.70;99.90;;;;;;10488357;28;20492;-87
2022/05/07 23:49:13;;;;;;;52.65;32.80;;;11.70;99.90;;;;;;10484524;28;20048;-88
2022/05/07 23:54:14;;;;;;;60.15;35.92;;;11.60;99.90;;;;;;10470702;28;20029;-87
2022/05/07 23:59:14;;;;;;;53.20;34.13;;;11.50;99.90;;;;;;10480387;28;20031;-88
